Time;durP1;ratioP1;P1;durP2;ratioP2;P2;SDS_P1;SDS_P2;PMS_P1;PMS_P2;Temp;Humidity;BMP_temperature;BMP_pressure;BME280_temperature;BME280_humidity;BME280_pressure;Samples;Min_cycle;Max_cycle;Signal;HPM_P1;HPM_P2
2022/05/31 00:00:32;;;;;;;8.15;5.90;;;7.90;1.00;;;;;;5001427;28;20096;-82
2022/05/31 00:02:59;;;;;;;6.40;5.28;;;8.00;1.00;;;;;;4976071;28;20722;-82
2022/05/31 00:05:26;;;;;;;6.00;5.28;;;8.00;1.00;;;;;;4971643;28;20044;-81
2022/05/31 00:07:55;;;;;;;7.15;6.43;;;7.90;1.00;;;;;;4983678;28;20066;-82
2022/05/31 00:10:21;;;;;;;6.10;5.13;;;8.00;1.00;;;;;;5003690;28;20026;-82
2022/05/31 00:12:50;;;;;;;3.38;2.90;;;8.00;1.00;;;;;;4976446;28;20646;-81
2022/05/31 00:15:17;;;;;;;6.15;3.85;;;7.80;99.90;;;;;;4988530;28;20042;-82
2022/05/31 00:17:43;;;;;;;3.13;2.83;;;7.90;99.90;;;;;;4975671;28;20386;-82
2022/05/31 00:20:12;;;;;;;4.07;3.67;;;7.80;99.90;;;;;;4987964;28;20038;-82
2022/05/31 00:22:39;;;;;;;7.03;4.75;;;7.90;99.90;;;;;;4992082;28;20049;-82
2022/05/31 00:25:06;;;;;;;9.43;3.30;;;7.90;99.90;;;;;;4991930;28;20458;-82
2022/05/31 00:27:32;;;;;;;7.90;5.43;;;7.80;99.90;;;;;;4991098;28;20044;-82
2022/05/31 00:29:58;;;;;;;5.22;4.18;;;7.90;99.90;;;;;;4974233;28;20038;-82
2022/05/31 00:32:30;;;;;;;6.65;5.95;;;7.80;99.90;;;;;;4987581;28;20053;-82
2022/05/31 00:34:58;;;;;;;5.97;5.32;;;7.90;99.90;;;;;;5004120;28;20444;-82
2022/05/31 00:37:27;;;;;;;5.97;5.20;;;7.90;99.90;;;;;;4972785;28;20101;-82
2022/05/31 00:39:53;;;;;;;6.32;5.63;;;7.90;99.90;;;;;;4973520;28;20121;-81
2022/05/31 00:42:22;;;;;;;5.10;3.95;;;8.00;1.00;;;;;;4977210;28;20050;-82
2022/05/31 00:44:49;;;;;;;6.20;4.95;;;8.00;1.00;;;;;;5001354;28;20110;-82
2022/05/31 00:47:24;;;;;;;5.90;4.97;;;8.00;1.00;;;;;;5001029;28;20042;-82
2022/05/31 00:50:02;;;;;;;5.13;4.57;;;8.00;99.90;;;;;;5002323;28;20045;-82
2022/05/31 00:52:31;;;;;;;5.28;4.78;;;8.00;99.90;;;;;;4998714;28;20180;-81
2022/05/31 00:55:07;;;;;;;4.18;3.78;;;8.00;99.90;;;;;;5002256;28;20436;-82
2022/05/31 00:57:34;;;;;;;5.55;4.95;;;7.90;99.90;;;;;;4975864;28;20055;-82
2022/05/31 01:00:09;;;;;;;5.35;4.70;;;8.00;99.90;;;;;;4986280;28;20038;-82
2022/05/31 01:02:35;;;;;;;;;;;8.00;99.90;;;;;;5002972;28;20042;-82
2022/05/31 01:05:04;;;;;;;6.10;5.25;;;8.10;99.90;;;;;;4992482;28;19925;-82
2022/05/31 01:07:30;;;;;;;8.07;4.88;;;8.10;99.90;;;;;;4986691;28;20057;-81
2022/05/31 01:09:56;;;;;;;4.95;4.45;;;8.10;99.90;;;;;;4999914;28;20039;-82
2022/05/31 01:12:23;;;;;;;5.63;4.32;;;8.10;99.90;;;;;;5006439;28;20250;-81
2022/05/31 01:14:49;;;;;;;7.03;4.63;;;8.10;99.90;;;;;;4987646;28;20482;-81
2022/05/31 01:17:22;;;;;;;5.00;4.50;;;8.20;99.90;;;;;;5000806;28;20070;-81
2022/05/31 01:20:01;;;;;;;4.80;4.38;;;8.20;99.90;;;;;;4984071;28;20101;-82
2022/05/31 01:22:29;;;;;;;6.13;5.13;;;8.20;99.90;;;;;;4989306;28;20035;-82
2022/05/31 01:25:14;;;;;;;7.80;5.57;;;8.20;99.90;;;;;;4998265;28;20259;-81
2022/05/31 01:27:57;;;;;;;6.25;5.20;;;8.20;99.90;;;;;;4994292;28;20177;-82
2022/05/31 01:30:29;;;;;;;5.05;4.47;;;8.30;99.90;;;;;;5005828;28;20186;-82
2022/05/31 01:33:00;;;;;;;5.18;4.68;;;8.20;99.90;;;;;;4988017;28;20038;-82
2022/05/31 01:35:29;;;;;;;5.93;5.13;;;8.20;99.90;;;;;;5008032;28;20552;-82
2022/05/31 01:38:10;;;;;;;7.88;6.13;;;8.30;99.90;;;;;;5005292;28;20089;-82
2022/05/31 01:40:54;;;;;;;6.65;5.35;;;8.30;99.90;;;;;;5001831;28;20073;-82
2022/05/31 01:43:20;;;;;;;7.90;5.78;;;8.30;99.90;;;;;;5002901;28;20145;-81
2022/05/31 01:45:56;;;;;;;6.22;5.60;;;8.30;99.90;;;;;;4976677;28;20117;-82
2022/05/31 01:48:24;;;;;;;6.53;5.60;;;8.30;99.90;;;;;;4991578;28;20042;-81
2022/05/31 01:50:50;;;;;;;8.32;6.45;;;8.40;99.90;;;;;;5003595;28;20038;-82
2022/05/31 01:53:16;;;;;;;5.93;5.32;;;8.40;99.90;;;;;;5004671;28;20058;-82
2022/05/31 01:55:43;;;;;;;6.32;5.25;;;8.30;99.90;;;;;;5000644;28;20042;-82
2022/05/31 01:58:14;;;;;;;6.28;5.68;;;8.40;99.90;;;;;;5007031;28;20470;-81
2022/05/31 02:00:40;;;;;;;8.38;6.18;;;8.30;99.90;;;;;;4983027;28;20039;-82
2022/05/31 02:03:06;;;;;;;7.10;6.40;;;8.30;99.90;;;;;;4989079;28;20041;-82
2022/05/31 02:05:32;;;;;;;7.43;6.60;;;8.40;99.90;;;;;;4977857;28;20049;-81
2022/05/31 02:08:03;;;;;;;7.22;6.50;;;8.40;99.90;;;;;;5007029;28;21482;-82
2022/05/31 02:10:29;;;;;;;9.15;6.68;;;8.40;99.90;;;;;;4975859;28;20280;-82
2022/05/31 02:12:55;;;;;;;7.72;6.60;;;8.40;99.90;;;;;;4977076;28;20030;-82
2022/05/31 02:15:23;;;;;;;6.93;6.22;;;8.40;99.90;;;;;;4984465;28;20042;-82
2022/05/31 02:17:49;;;;;;;6.78;6.18;;;8.40;99.90;;;;;;5004207;28;20052;-81
2022/05/31 02:20:17;;;;;;;8.10;6.55;;;8.40;99.90;;;;;;4979154;28;20476;-82
2022/05/31 02:22:43;;;;;;;7.05;5.80;;;8.40;99.90;;;;;;4979526;28;20502;-82
2022/05/31 02:25:09;;;;;;;6.50;5.85;;;8.40;99.90;;;;;;4993019;28;20096;-82
2022/05/31 02:27:35;;;;;;;7.43;6.43;;;8.40;99.90;;;;;;4984208;28;20042;-81
2022/05/31 02:30:01;;;;;;;6.53;5.93;;;8.40;99.90;;;;;;4985387;28;20477;-81
2022/05/31 02:32:27;;;;;;;10.48;7.30;;;8.40;99.90;;;;;;4977298;28;20129;-82
2022/05/31 02:34:53;;;;;;;7.85;7.05;;;8.50;99.90;;;;;;4982952;28;20081;-82
2022/05/31 02:37:22;;;;;;;8.23;7.30;;;8.50;99.90;;;;;;4976574;28;20049;-82
2022/05/31 02:39:48;;;;;;;7.78;7.05;;;8.50;99.90;;;;;;4993085;28;20107;-82
2022/05/31 02:42:16;;;;;;;8.57;6.75;;;8.50;99.90;;;;;;5007434;28;20485;-82
2022/05/31 02:44:43;;;;;;;7.75;6.78;;;8.50;99.90;;;;;;5005957;28;20042;-82
2022/05/31 02:47:09;;;;;;;7.40;6.70;;;8.50;99.90;;;;;;4979026;28;20069;-83
2022/05/31 02:49:40;;;;;;;8.13;6.78;;;8.50;99.90;;;;;;4976383;28;20286;-82
2022/05/31 02:52:07;;;;;;;8.38;7.03;;;8.50;99.90;;;;;;4975856;28;20045;-82
2022/05/31 02:54:35;;;;;;;7.40;6.70;;;8.50;99.90;;;;;;5007369;28;20582;-82
2022/05/31 02:57:01;;;;;;;7.57;6.80;;;8.50;99.90;;;;;;4974505;28;20050;-82
2022/05/31 02:59:30;;;;;;;9.07;7.55;;;8.50;99.90;;;;;;5006452;28;20034;-82
2022/05/31 03:01:56;;;;;;;8.80;7.10;;;8.50;99.90;;;;;;5006656;28;20092;-82
2022/05/31 03:04:22;;;;;;;7.07;6.28;;;8.50;99.90;;;;;;4992102;28;20117;-82
2022/05/31 03:06:48;;;;;;;7.70;6.68;;;8.50;99.90;;;;;;5007648;28;20034;-82
2022/05/31 03:09:14;;;;;;;8.90;6.57;;;8.50;99.90;;;;;;4975175;28;20049;-82
2022/05/31 03:11:39;;;;;;;7.25;6.55;;;8.50;99.90;;;;;;5003318;28;20100;-81
2022/05/31 03:14:15;;;;;;;8.02;6.80;;;8.50;99.90;;;;;;5004378;28;20077;-82
2022/05/31 03:16:44;;;;;;;8.10;6.95;;;8.50;99.90;;;;;;4993452;28;20061;-82
2022/05/31 03:19:15;;;;;;;8.32;7.53;;;8.50;99.90;;;;;;4976222;28;20131;-82
2022/05/31 03:21:51;;;;;;;8.27;6.70;;;8.50;99.90;;;;;;4989178;28;20678;-82
2022/05/31 03:24:21;;;;;;;8.00;7.10;;;8.50;99.90;;;;;;4959682;28;20149;-82
2022/05/31 03:26:50;;;;;;;9.95;7.35;;;8.50;99.90;;;;;;4980533;28;20050;-82
2022/05/31 03:29:16;;;;;;;10.32;7.15;;;8.60;99.90;;;;;;4981962;28;20287;-82
2022/05/31 03:31:42;;;;;;;7.88;7.07;;;8.50;99.90;;;;;;5005016;28;20639;-82
2022/05/31 03:34:10;;;;;;;7.43;6.65;;;8.60;99.90;;;;;;4975646;28;20139;-82
2022/05/31 03:36:36;;;;;;;7.38;6.63;;;8.60;99.90;;;;;;4983162;28;20042;-81
2022/05/31 03:39:02;;;;;;;11.27;7.30;;;8.50;99.90;;;;;;4975885;28;20460;-81
2022/05/31 03:41:31;;;;;;;7.95;7.10;;;8.50;99.90;;;;;;5003863;28;20156;-82
2022/05/31 03:43:57;;;;;;;7.60;6.70;;;8.60;99.90;;;;;;4989907;28;20065;-82
2022/05/31 03:46:24;;;;;;;8.32;7.28;;;8.60;99.90;;;;;;4990639;28;20201;-81
2022/05/31 03:48:49;;;;;;;8.38;7.35;;;8.70;99.90;;;;;;4993522;28;20345;-81
2022/05/31 03:51:15;;;;;;;8.90;7.53;;;8.60;99.90;;;;;;4976312;28;20048;-82
2022/05/31 03:53:41;;;;;;;8.95;7.63;;;8.70;99.90;;;;;;4986783;28;20628;-82
2022/05/31 03:56:09;;;;;;;8.32;7.03;;;8.70;99.90;;;;;;4975504;28;20039;-82
2022/05/31 03:58:36;;;;;;;10.57;7.93;;;8.70;99.90;;;;;;4993542;28;20042;-82
2022/05/31 04:01:02;;;;;;;8.52;7.45;;;8.70;99.90;;;;;;4995412;28;20497;-81
2022/05/31 04:03:28;;;;;;;8.50;7.70;;;8.80;99.90;;;;;;5003027;28;20036;-82
2022/05/31 04:05:54;;;;;;;10.75;8.30;;;8.80;99.90;;;;;;4980743;28;20042;-82
2022/05/31 04:08:20;;;;;;;8.18;7.38;;;8.80;99.90;;;;;;4975253;28;20130;-82
2022/05/31 04:10:47;;;;;;;8.45;7.32;;;8.80;99.90;;;;;;5003469;28;20446;-82
2022/05/31 04:13:14;;;;;;;9.63;7.78;;;8.90;99.90;;;;;;4994783;28;20038;-82
2022/05/31 04:15:40;;;;;;;10.02;8.40;;;8.90;99.90;;;;;;4988345;28;20045;-82
2022/05/31 04:18:06;;;;;;;9.32;8.43;;;8.90;99.90;;;;;;4974780;28;20057;-82
2022/05/31 04:20:33;;;;;;;9.10;7.53;;;9.00;99.90;;;;;;4974424;28;20037;-82
2022/05/31 04:25:45;;;;;;;8.88;7.55;;;9.00;99.90;;;;;;4981911;28;20803;-82
2022/05/31 04:28:11;;;;;;;8.68;7.78;;;9.10;99.90;;;;;;4977273;28;20042;-82
2022/05/31 04:30:37;;;;;;;11.75;7.85;;;9.10;99.90;;;;;;4988781;28;20109;-82
2022/05/31 04:33:06;;;;;;;8.38;7.32;;;9.20;99.90;;;;;;5002641;28;20077;-82
2022/05/31 04:35:32;;;;;;;8.80;7.93;;;9.20;99.90;;;;;;4973978;28;20126;-81
2022/05/31 04:37:57;;;;;;;8.63;7.68;;;9.30;99.90;;;;;;4980340;28;20043;-82
2022/05/31 04:40:24;;;;;;;8.88;7.88;;;9.30;99.90;;;;;;4988279;28;20066;-82
2022/05/31 04:42:51;;;;;;;9.57;8.52;;;9.30;99.90;;;;;;5008889;28;20147;-82
2022/05/31 04:45:17;;;;;;;8.75;7.53;;;9.30;99.90;;;;;;4980612;28;20153;-81
2022/05/31 04:47:45;;;;;;;8.13;7.32;;;9.40;99.90;;;;;;4989504;28;20156;-81
2022/05/31 04:50:11;;;;;;;9.60;8.60;;;9.40;99.90;;;;;;4974477;28;20486;-82
2022/05/31 04:52:37;;;;;;;9.27;8.35;;;9.40;99.90;;;;;;4974058;28;20050;-82
2022/05/31 04:55:04;;;;;;;10.18;7.90;;;9.50;99.90;;;;;;4974590;28;20650;-82
2022/05/31 04:57:29;;;;;;;8.82;7.55;;;9.50;99.90;;;;;;4975728;28;20052;-81
2022/05/31 04:59:55;;;;;;;9.82;8.40;;;9.50;99.90;;;;;;4982370;28;20034;-82
2022/05/31 05:02:20;;;;;;;9.15;8.25;;;9.50;99.90;;;;;;4982818;28;20106;-81
2022/05/31 05:04:46;;;;;;;9.23;8.20;;;9.60;99.90;;;;;;4982044;28;20038;-81
2022/05/31 05:07:12;;;;;;;10.38;8.75;;;9.60;99.90;;;;;;5000530;28;20097;-82
2022/05/31 05:09:37;;;;;;;9.25;8.00;;;9.70;99.90;;;;;;4971558;28;20054;-81
2022/05/31 05:12:04;;;;;;;9.23;8.23;;;9.70;99.90;;;;;;5003038;28;20080;-81
2022/05/31 05:14:30;;;;;;;9.85;8.85;;;9.80;99.90;;;;;;5003605;28;20129;-81
2022/05/31 05:16:56;;;;;;;10.18;8.85;;;9.90;99.90;;;;;;4975458;28;20077;-81
2022/05/31 05:19:22;;;;;;;9.07;8.05;;;9.90;99.90;;;;;;4975140;28;20042;-81
2022/05/31 05:21:48;;;;;;;9.90;8.90;;;10.00;99.90;;;;;;5001940;28;20042;-81
2022/05/31 05:24:13;;;;;;;9.65;8.75;;;10.10;99.90;;;;;;5005084;28;20097;-81
2022/05/31 05:26:42;;;;;;;9.90;8.50;;;10.20;99.90;;;;;;4975169;28;20543;-81
2022/05/31 05:31:56;;;;;;;9.25;8.35;;;10.30;99.90;;;;;;5005542;28;20497;-81
2022/05/31 05:34:22;;;;;;;10.10;8.73;;;10.30;99.90;;;;;;4992911;28;20453;-81
2022/05/31 05:36:48;;;;;;;9.35;8.45;;;10.30;99.90;;;;;;5006043;28;20050;-81
2022/05/31 05:39:14;;;;;;;9.05;8.15;;;10.40;99.90;;;;;;4991205;28;20052;-81
2022/05/31 05:41:40;;;;;;;9.60;8.60;;;10.40;99.90;;;;;;4984857;28;20062;-81
2022/05/31 05:44:06;;;;;;;9.15;8.25;;;10.50;99.90;;;;;;5009864;28;20344;-81
2022/05/31 05:46:32;;;;;;;10.57;8.63;;;10.50;99.90;;;;;;4980456;28;20030;-81
2022/05/31 05:48:58;;;;;;;9.82;8.40;;;10.60;99.90;;;;;;5009537;28;20497;-81
2022/05/31 05:51:27;;;;;;;9.38;8.18;;;10.70;99.90;;;;;;4982598;28;20104;-81
2022/05/31 05:53:53;;;;;;;12.20;8.85;;;10.70;99.90;;;;;;4982241;28;20137;-81
2022/05/31 05:56:19;;;;;;;9.45;8.40;;;10.80;99.90;;;;;;4983714;28;20050;-81
2022/05/31 05:58:45;;;;;;;10.02;8.90;;;10.90;99.90;;;;;;4987058;28;20099;-81
2022/05/31 06:01:30;;;;;;;9.50;8.27;;;11.10;99.90;;;;;;4983152;28;20117;-81
2022/05/31 06:04:03;;;;;;;9.68;7.95;;;11.10;99.90;;;;;;5004944;28;20049;-80
2022/05/31 06:06:31;;;;;;;8.77;7.88;;;11.20;99.90;;;;;;4985510;28;20619;-81
2022/05/31 06:09:08;;;;;;;9.13;7.93;;;11.30;99.90;;;;;;5012491;28;20042;-81
2022/05/31 06:12:06;;;;;;;10.25;8.15;;;11.40;99.90;;;;;;4976504;28;20042;-81
2022/05/31 06:14:42;;;;;;;9.77;7.88;;;11.50;99.90;;;;;;5000028;28;20060;-81
2022/05/31 06:17:21;;;;;;;10.05;8.07;;;11.70;99.90;;;;;;5001170;28;20058;-80
2022/05/31 06:19:49;;;;;;;8.20;7.35;;;11.80;99.90;;;;;;4983174;28;20297;-80
2022/05/31 06:22:16;;;;;;;9.23;7.40;;;11.90;99.90;;;;;;4992967;28;20057;-80
2022/05/31 06:24:43;;;;;;;7.82;7.03;;;12.10;99.90;;;;;;4986151;28;20049;-80
2022/05/31 06:27:09;;;;;;;8.30;7.28;;;12.20;99.90;;;;;;4996202;28;20052;-81
2022/05/31 06:29:37;;;;;;;8.32;6.85;;;12.10;99.90;;;;;;4980972;28;20046;-80
2022/05/31 06:32:05;;;;;;;7.78;6.68;;;12.30;94.40;;;;;;4978616;28;20145;-80
2022/05/31 06:34:31;;;;;;;8.23;7.25;;;12.30;98.30;;;;;;4985437;28;20046;-80
2022/05/31 06:37:12;;;;;;;8.30;7.03;;;12.40;55.60;;;;;;4994485;28;20049;-80
2022/05/31 06:39:39;;;;;;;8.35;7.45;;;12.60;59.10;;;;;;5006620;28;20057;-80
2022/05/31 06:42:06;;;;;;;7.88;7.07;;;12.70;82.70;;;;;;4992798;28;20483;-81
2022/05/31 06:44:36;;;;;;;7.30;6.60;;;12.70;10.20;;;;;;4992505;28;20050;-80
2022/05/31 06:47:02;;;;;;;6.85;6.13;;;12.60;1.00;;;;;;4984654;28;20371;-79
2022/05/31 06:49:29;;;;;;;7.45;6.68;;;12.50;1.00;;;;;;4979836;28;20571;-80
2022/05/31 06:57:23;;;;;;;6.03;5.30;;;12.90;1.00;;;;;;4981752;28;20057;-80
2022/05/31 06:59:49;;;;;;;6.55;5.95;;;12.80;1.00;;;;;;4983960;28;20121;-81
2022/05/31 07:02:15;;;;;;;6.45;5.85;;;13.10;1.00;;;;;;4985756;28;20108;-80
2022/05/31 07:04:40;;;;;;;8.65;6.30;;;13.10;1.00;;;;;;4989232;28;20053;-80
2022/05/31 07:07:06;;;;;;;8.27;6.43;;;13.30;1.00;;;;;;4983011;28;20275;-80
2022/05/31 07:09:33;;;;;;;6.97;6.03;;;13.50;1.00;;;;;;4983194;28;20061;-80
2022/05/31 07:12:02;;;;;;;6.28;5.65;;;13.40;1.00;;;;;;5000119;28;20136;-81
2022/05/31 07:14:28;;;;;;;6.88;5.80;;;13.60;1.00;;;;;;4983995;28;20054;-80
2022/05/31 07:16:53;;;;;;;7.80;5.38;;;13.80;1.00;;;;;;4980985;28;20221;-80
2022/05/31 07:19:19;;;;;;;6.32;5.72;;;13.80;99.90;;;;;;4993777;28;20605;-80
2022/05/31 07:21:45;;;;;;;10.25;5.40;;;14.00;99.90;;;;;;5000583;28;20041;-80
2022/05/31 07:24:11;;;;;;;6.75;4.93;;;14.20;99.90;;;;;;5001527;28;20077;-81
2022/05/31 07:26:38;;;;;;;6.32;5.35;;;14.20;99.90;;;;;;4979287;28;20377;-81
2022/05/31 07:29:08;;;;;;;6.07;4.90;;;14.30;99.90;;;;;;4994624;28;20124;-81
2022/05/31 07:31:37;;;;;;;7.50;5.20;;;14.40;99.90;;;;;;4977687;28;20188;-80
2022/05/31 07:34:04;;;;;;;7.70;6.10;;;14.70;99.90;;;;;;5005937;28;20041;-81
2022/05/31 07:36:36;;;;;;;6.00;4.63;;;14.70;99.90;;;;;;4988014;28;20104;-80
2022/05/31 07:39:02;;;;;;;6.93;4.75;;;14.90;99.90;;;;;;4996847;28;20477;-80
2022/05/31 07:41:29;;;;;;;6.13;4.97;;;14.80;99.90;;;;;;4998666;28;20054;-80
2022/05/31 07:43:54;;;;;;;6.53;4.80;;;15.10;99.90;;;;;;4991363;28;20096;-80
2022/05/31 07:46:20;;;;;;;6.57;4.78;;;14.90;99.90;;;;;;4974238;28;20536;-80
2022/05/31 07:48:46;;;;;;;7.03;4.97;;;15.00;99.90;;;;;;5007504;28;20121;-80
2022/05/31 07:51:12;;;;;;;8.82;4.55;;;14.90;99.90;;;;;;4975060;28;20144;-81
2022/05/31 07:53:38;;;;;;;6.05;4.43;;;15.00;99.90;;;;;;4976103;28;20068;-80
2022/05/31 07:56:09;;;;;;;5.30;4.53;;;14.70;99.90;;;;;;4997795;28;20379;-80
2022/05/31 07:58:37;;;;;;;7.40;4.45;;;14.50;99.90;;;;;;4983780;28;20123;-81
2022/05/31 08:01:08;;;;;;;5.43;4.00;;;14.50;99.90;;;;;;4987485;28;20041;-80
2022/05/31 08:03:35;;;;;;;5.47;4.88;;;14.50;99.90;;;;;;5007962;28;20046;-80
2022/05/31 08:06:08;;;;;;;5.95;4.53;;;14.90;99.90;;;;;;5004739;28;20076;-81
2022/05/31 08:08:36;;;;;;;4.85;4.10;;;15.30;99.90;;;;;;4993644;28;20541;-81
2022/05/31 08:11:03;;;;;;;7.43;4.47;;;15.50;99.90;;;;;;4975074;28;20054;-80
2022/05/31 08:13:33;;;;;;;7.40;4.25;;;15.50;99.90;;;;;;4995141;28;20053;-80
2022/05/31 08:16:03;;;;;;;4.70;4.05;;;15.50;99.90;;;;;;4977474;28;20180;-81
2022/05/31 08:18:29;;;;;;;6.35;4.13;;;15.70;99.90;;;;;;5004016;28;20045;-80
2022/05/31 08:21:04;;;;;;;6.15;4.38;;;16.00;99.90;;;;;;4990602;28;20029;-80
2022/05/31 08:24:22;;;;;;;6.95;4.85;;;16.00;99.90;;;;;;4988248;28;20552;-81
2022/05/31 08:26:48;;;;;;;6.30;4.22;;;16.10;99.90;;;;;;5005120;28;20054;-81
2022/05/31 08:29:14;;;;;;;6.65;4.18;;;16.80;99.90;;;;;;4977860;28;20432;-81
2022/05/31 08:31:40;;;;;;;5.47;4.00;;;16.80;99.90;;;;;;4981536;28;20544;-81
2022/05/31 08:34:07;;;;;;;4.85;3.60;;;17.00;99.90;;;;;;4971440;28;20097;-80
2022/05/31 08:36:33;;;;;;;5.28;3.70;;;16.70;99.90;;;;;;4973871;28;20042;-81
2022/05/31 08:39:00;;;;;;;4.80;3.90;;;17.00;99.90;;;;;;4976106;28;20035;-81
2022/05/31 08:41:45;;;;;;;5.10;3.80;;;16.80;99.90;;;;;;4979037;28;20238;-81
2022/05/31 08:44:42;;;;;;;6.60;3.75;;;16.50;99.90;;;;;;5001317;28;20077;-80
2022/05/31 08:47:36;;;;;;;3.97;3.20;;;16.90;99.90;;;;;;4975912;28;20042;-80
2022/05/31 08:53:38;;;;;;;6.03;3.58;;;17.00;99.90;;;;;;4978897;28;20049;-80
2022/05/31 08:59:17;;;;;;;5.30;3.80;;;17.50;99.90;;;;;;4975314;28;20089;-81
2022/05/31 09:01:56;;;;;;;6.85;3.63;;;17.20;99.90;;;;;;4972835;28;20042;-80
2022/05/31 09:04:34;;;;;;;4.75;3.20;;;16.40;99.90;;;;;;5003859;28;21335;-81
2022/05/31 09:07:25;;;;;;;4.63;2.78;;;16.20;99.90;;;;;;4981044;28;20041;-81
2022/05/31 09:10:28;;;;;;;4.28;2.63;;;16.20;99.90;;;;;;4979469;28;20046;-80
2022/05/31 09:12:58;;;;;;;5.78;3.40;;;16.10;99.90;;;;;;4991676;28;20045;-81
2022/05/31 09:15:32;;;;;;;5.63;3.78;;;16.60;99.90;;;;;;4981852;28;20148;-81
2022/05/31 09:18:07;;;;;;;3.50;2.67;;;17.00;99.90;;;;;;4999132;28;20050;-81
2022/05/31 09:20:37;;;;;;;;;;;17.20;99.90;;;;;;4981688;28;20398;-80
2022/05/31 09:23:03;;;;;;;5.72;2.60;;;17.60;99.90;;;;;;4982432;28;20024;-81
2022/05/31 09:25:37;;;;;;;5.38;2.90;;;17.30;97.10;;;;;;5000690;28;20566;-81
2022/05/31 09:28:24;;;;;;;4.53;2.50;;;17.30;94.70;;;;;;4979846;28;20134;-81
2022/05/31 09:30:52;;;;;;;5.50;3.00;;;17.50;87.80;;;;;;4978117;28;20045;-81
2022/05/31 09:33:37;;;;;;;5.53;2.78;;;17.60;82.90;;;;;;4979723;28;20038;-81
2022/05/31 09:36:17;;;;;;;5.18;2.70;;;18.40;95.30;;;;;;4977644;28;20090;-81
2022/05/31 09:38:54;;;;;;;4.15;2.70;;;18.10;60.40;;;;;;4982471;28;20049;-81
2022/05/31 09:41:28;;;;;;;5.05;2.97;;;18.00;79.90;;;;;;4995033;28;20468;-81
2022/05/31 09:44:26;;;;;;;7.03;3.38;;;17.80;65.10;;;;;;4996325;28;20038;-81
2022/05/31 09:47:02;;;;;;;4.72;2.75;;;17.70;59.30;;;;;;4975886;28;20171;-81
2022/05/31 09:49:39;;;;;;;5.95;3.08;;;17.60;61.20;;;;;;5007434;28;20121;-81
2022/05/31 09:52:14;;;;;;;5.05;3.03;;;17.50;51.00;;;;;;4989630;28;20053;-81
2022/05/31 09:58:08;;;;;;;5.32;3.63;;;17.20;48.30;;;;;;4984841;28;20109;-81
2022/05/31 10:00:36;;;;;;;9.88;3.55;;;17.20;57.20;;;;;;4977793;28;20041;-81
2022/05/31 10:03:13;;;;;;;5.57;3.53;;;17.10;52.00;;;;;;5004230;28;20050;-81
2022/05/31 10:05:42;;;;;;;7.00;3.13;;;17.10;59.80;;;;;;4978744;28;20515;-81
2022/05/31 10:08:15;;;;;;;7.38;3.40;;;17.00;55.10;;;;;;4977692;28;20046;-81
2022/05/31 10:10:47;;;;;;;5.60;3.33;;;17.10;51.80;;;;;;4993671;28;20057;-81
2022/05/31 10:13:34;;;;;;;5.18;3.17;;;17.10;47.00;;;;;;4978463;28;20389;-81
2022/05/31 10:16:09;;;;;;;3.58;2.60;;;17.10;41.30;;;;;;4993079;28;20122;-81
2022/05/31 10:18:54;;;;;;;5.80;2.58;;;17.10;40.30;;;;;;4996730;28;20389;-81
2022/05/31 10:21:42;;;;;;;4.30;2.90;;;17.30;45.20;;;;;;4976385;28;20034;-81
2022/05/31 10:24:19;;;;;;;5.68;2.50;;;17.30;40.70;;;;;;5006305;28;20070;-81
2022/05/31 10:27:04;;;;;;;4.38;2.95;;;17.20;44.40;;;;;;5008274;28;20501;-81
2022/05/31 10:29:33;;;;;;;6.97;3.40;;;17.50;49.10;;;;;;5001084;28;20080;-81
2022/05/31 10:32:19;;;;;;;7.20;3.10;;;17.30;44.60;;;;;;4983941;28;20248;-81
2022/05/31 10:34:45;;;;;;;7.80;3.00;;;17.40;41.00;;;;;;5007490;28;20066;-81
2022/05/31 10:37:32;;;;;;;5.78;3.00;;;17.50;40.60;;;;;;4983147;28;20039;-81
2022/05/31 10:40:05;;;;;;;6.25;3.05;;;17.50;36.40;;;;;;4981940;28;20057;-81
2022/05/31 10:42:36;;;;;;;3.20;2.90;;;17.70;43.50;;;;;;5008890;28;20140;-81
2022/05/31 10:45:04;;;;;;;3.65;2.72;;;17.70;37.60;;;;;;5006250;28;20069;-81
2022/05/31 10:47:30;;;;;;;4.65;2.58;;;17.60;39.70;;;;;;4978666;28;20135;-81
2022/05/31 10:49:56;;;;;;;6.55;2.70;;;18.00;40.80;;;;;;5001970;28;20046;-81
2022/05/31 10:52:53;;;;;;;5.43;2.88;;;18.60;37.90;;;;;;5003005;28;20116;-81
2022/05/31 10:55:42;;;;;;;5.32;3.35;;;18.80;41.00;;;;;;4974679;28;20082;-81
2022/05/31 10:58:35;;;;;;;6.07;2.97;;;19.40;30.00;;;;;;4987682;28;20092;-81
2022/05/31 11:01:03;;;;;;;4.05;3.05;;;19.90;36.50;;;;;;4979834;28;20049;-81
2022/05/31 11:03:29;;;;;;;5.18;3.10;;;20.00;34.20;;;;;;4975975;28;20045;-81
2022/05/31 11:06:07;;;;;;;5.70;3.40;;;20.10;27.40;;;;;;4983573;28;20378;-81
2022/05/31 11:11:42;;;;;;;8.00;3.70;;;20.50;23.00;;;;;;4983485;28;20042;-81
2022/05/31 11:14:38;;;;;;;6.10;3.40;;;20.70;27.00;;;;;;4991534;28;20031;-82
2022/05/31 11:17:16;;;;;;;4.97;3.30;;;20.90;24.00;;;;;;4987125;28;20057;-81
2022/05/31 11:20:13;;;;;;;7.68;3.55;;;20.50;11.20;;;;;;5005395;28;20038;-81
2022/05/31 11:22:57;;;;;;;6.18;3.08;;;20.60;8.70;;;;;;4989033;28;20527;-81
2022/05/31 11:26:07;;;;;;;4.63;3.03;;;20.40;8.20;;;;;;4995058;28;20077;-81
2022/05/31 11:28:45;;;;;;;4.65;2.90;;;20.20;3.50;;;;;;5007614;28;20614;-82
2022/05/31 11:31:48;;;;;;;7.20;3.53;;;20.30;6.80;;;;;;5005540;28;20496;-81
2022/05/31 11:34:17;;;;;;;3.45;2.50;;;20.00;1.00;;;;;;4994245;28;20080;-81
2022/05/31 11:37:00;;;;;;;5.45;3.03;;;19.80;1.00;;;;;;5005334;28;20197;-81
2022/05/31 11:39:42;;;;;;;4.03;3.00;;;19.70;1.00;;;;;;4994661;28;20548;-81
2022/05/31 11:42:45;;;;;;;4.70;3.05;;;20.60;1.00;;;;;;4980840;28;20046;-81
2022/05/31 11:45:29;;;;;;;4.47;2.53;;;21.50;6.30;;;;;;4980336;28;20440;-82
2022/05/31 11:48:13;;;;;;;3.40;2.10;;;21.60;1.00;;;;;;5002144;28;20069;-82
2022/05/31 11:50:56;;;;;;;7.47;2.45;;;21.20;1.00;;;;;;4965993;28;20406;-82
2022/05/31 11:53:46;;;;;;;5.65;3.03;;;21.50;1.00;;;;;;4975179;28;20137;-82
2022/05/31 11:56:41;;;;;;;6.57;2.80;;;22.00;1.00;;;;;;4971411;28;20108;-81
2022/05/31 11:59:19;;;;;;;5.25;2.85;;;21.80;1.00;;;;;;4957076;28;20359;-82
2022/05/31 12:01:53;;;;;;;8.18;3.17;;;21.30;1.00;;;;;;4973364;28;20038;-81
2022/05/31 12:04:35;;;;;;;4.97;3.05;;;20.50;1.00;;;;;;4999705;28;20327;-81
2022/05/31 12:07:18;;;;;;;5.90;3.08;;;20.10;1.00;;;;;;4977901;28;20046;-82
2022/05/31 12:09:53;;;;;;;3.55;2.55;;;20.50;1.00;;;;;;4977501;28;20042;-82
2022/05/31 12:12:20;;;;;;;;;;;20.10;1.00;;;;;;5010723;28;20394;-81
2022/05/31 12:14:51;;;;;;;6.38;2.97;;;20.40;1.00;;;;;;4977266;28;20058;-81
2022/05/31 12:17:22;;;;;;;4.53;3.30;;;21.00;1.00;;;;;;4982277;28;20125;-81
2022/05/31 12:20:07;;;;;;;4.22;2.95;;;20.50;1.00;;;;;;4979198;28;20425;-82
2022/05/31 12:22:47;;;;;;;5.05;2.97;;;21.00;1.00;;;;;;4978952;28;20322;-81
2022/05/31 12:25:20;;;;;;;5.43;2.80;;;21.60;1.00;;;;;;4994272;28;20711;-80
2022/05/31 12:27:53;;;;;;;3.75;2.42;;;21.60;1.00;;;;;;4981065;28;20404;-80
2022/05/31 12:30:23;;;;;;;4.55;3.15;;;20.80;1.00;;;;;;4979774;28;20046;-82
2022/05/31 12:32:54;;;;;;;4.18;2.53;;;20.20;1.00;;;;;;4981841;28;20389;-82
2022/05/31 12:35:29;;;;;;;4.82;2.83;;;20.00;1.00;;;;;;4978328;28;20030;-82
2022/05/31 12:38:00;;;;;;;;;;;19.80;1.00;;;;;;4980497;28;20050;-81
2022/05/31 12:40:35;;;;;;;5.60;2.40;;;19.40;1.00;;;;;;4982377;28;19926;-81
2022/05/31 12:43:03;;;;;;;5.70;2.90;;;19.00;1.00;;;;;;4979989;28;20211;-82
2022/05/31 12:45:34;;;;;;;3.90;2.40;;;19.10;1.00;;;;;;4977860;28;20026;-82
2022/05/31 12:48:29;;;;;;;5.50;2.45;;;18.80;1.00;;;;;;5009819;28;20073;-82
2022/05/31 12:50:55;;;;;;;3.33;2.55;;;18.30;1.00;;;;;;4989469;28;20062;-81
2022/05/31 12:53:47;;;;;;;3.70;2.20;;;18.20;1.00;;;;;;4979288;28;20180;-82
2022/05/31 12:56:34;;;;;;;4.57;2.60;;;18.00;1.00;;;;;;4988727;28;20050;-81
2022/05/31 12:59:04;;;;;;;4.78;2.83;;;17.60;1.00;;;;;;5010503;28;20097;-81
2022/05/31 13:01:30;;;;;;;3.17;2.30;;;17.40;1.00;;;;;;4984951;28;20337;-82
2022/05/31 13:04:17;;;;;;;3.90;2.88;;;17.50;1.00;;;;;;5000313;28;20052;-82
2022/05/31 13:07:04;;;;;;;3.95;2.72;;;17.30;1.00;;;;;;4978628;28;20070;-82
2022/05/31 13:09:38;;;;;;;6.25;3.08;;;17.10;1.00;;;;;;4972941;28;20133;-82
2022/05/31 13:20:56;;;;;;;4.63;2.90;;;16.70;1.00;;;;;;4969625;28;20058;-82
2022/05/31 13:23:25;;;;;;;4.93;3.08;;;16.70;1.00;;;;;;4970776;28;20038;-82
2022/05/31 13:26:09;;;;;;;3.78;2.83;;;16.60;1.00;;;;;;4986097;28;20116;-82
2022/05/31 13:28:40;;;;;;;5.13;2.80;;;16.50;1.00;;;;;;5006684;28;20581;-82
2022/05/31 13:31:15;;;;;;;7.60;3.50;;;16.40;1.00;;;;;;4983428;28;20372;-82
2022/05/31 13:33:41;;;;;;;5.20;2.95;;;16.30;1.00;;;;;;4981506;28;20053;-82
2022/05/31 13:36:12;;;;;;;4.18;2.78;;;16.30;1.00;;;;;;5001772;28;20051;-82
2022/05/31 13:38:43;;;;;;;6.70;3.00;;;16.30;1.00;;;;;;4970750;28;20043;-82
2022/05/31 13:41:14;;;;;;;5.40;2.90;;;16.20;1.00;;;;;;4975084;28;20138;-82
2022/05/31 13:43:50;;;;;;;6.50;3.47;;;16.20;1.00;;;;;;5000006;28;20437;-82
2022/05/31 13:46:24;;;;;;;4.47;2.92;;;16.20;1.00;;;;;;4986777;28;20435;-82
2022/05/31 13:49:10;;;;;;;6.68;3.13;;;16.20;1.00;;;;;;5001598;28;20037;-82